sensor_id;sensor_type;location;lat;lon;timestamp;P1;durP1;ratioP1;P2;durP2;ratioP2
80119;SDS011;69425;55.040;82.918;2023-05-10T00:04:57;1.33;;;0.70;;
80119;SDS011;69425;55.040;82.918;2023-05-10T00:10:00;1.42;;;1.02;;
80119;SDS011;69425;55.040;82.918;2023-05-10T00:15:01;2.60;;;1.08;;
80119;SDS011;69425;55.040;82.918;2023-05-10T00:20:04;1.73;;;1.10;;
80119;SDS011;69425;55.040;82.918;2023-05-10T00:25:08;2.00;;;1.10;;
80119;SDS011;69425;55.040;82.918;2023-05-10T00:30:10;2.25;;;1.35;;
80119;SDS011;69425;55.040;82.918;2023-05-10T00:35:11;2.28;;;1.30;;
80119;SDS011;69425;55.040;82.918;2023-05-10T00:40:14;2.88;;;1.35;;
80119;SDS011;69425;55.040;82.918;2023-05-10T00:45:15;2.33;;;0.75;;
80119;SDS011;69425;55.040;82.918;2023-05-10T00:50:16;1.13;;;0.80;;
80119;SDS011;69425;55.040;82.918;2023-05-10T00:55:19;2.35;;;1.08;;
80119;SDS011;69425;55.040;82.918;2023-05-10T01:00:21;4.85;;;1.08;;
80119;SDS011;69425;55.040;82.918;2023-05-10T01:05:22;2.63;;;1.27;;
80119;SDS011;69425;55.040;82.918;2023-05-10T01:10:25;1.98;;;1.00;;
80119;SDS011;69425;55.040;82.918;2023-05-10T01:15:26;3.08;;;1.05;;
80119;SDS011;69425;55.040;82.918;2023-05-10T01:20:28;2.10;;;1.15;;
80119;SDS011;69425;55.040;82.918;2023-05-10T01:25:58;2.22;;;1.52;;
80119;SDS011;69425;55.040;82.918;2023-05-10T01:36:35;2.78;;;1.38;;
80119;SDS011;69425;55.040;82.918;2023-05-10T01:41:42;3.45;;;1.00;;
80119;SDS011;69425;55.040;82.918;2023-05-10T01:47:01;2.22;;;1.23;;
80119;SDS011;69425;55.040;82.918;2023-05-10T01:52:08;4.55;;;1.35;;
80119;SDS011;69425;55.040;82.918;2023-05-10T01:57:11;1.35;;;0.75;;
80119;SDS011;69425;55.040;82.918;2023-05-10T02:02:14;2.55;;;1.27;;
80119;SDS011;69425;55.040;82.918;2023-05-10T02:07:17;1.90;;;0.98;;
80119;SDS011;69425;55.040;82.918;2023-05-10T02:12:18;1.00;;;0.80;;
80119;SDS011;69425;55.040;82.918;2023-05-10T02:17:21;1.67;;;0.65;;
80119;SDS011;69425;55.040;82.918;2023-05-10T02:22:25;2.83;;;0.65;;
80119;SDS011;69425;55.040;82.918;2023-05-10T02:27:27;2.17;;;0.98;;
80119;SDS011;69425;55.040;82.918;2023-05-10T02:32:29;3.28;;;1.13;;
80119;SDS011;69425;55.040;82.918;2023-05-10T02:37:32;3.78;;;1.08;;
80119;SDS011;69425;55.040;82.918;2023-05-10T02:42:35;8.13;;;1.65;;
80119;SDS011;69425;55.040;82.918;2023-05-10T02:47:38;3.20;;;1.52;;
80119;SDS011;69425;55.040;82.918;2023-05-10T02:52:42;4.20;;;1.38;;
80119;SDS011;69425;55.040;82.918;2023-05-10T02:57:47;3.33;;;1.48;;
80119;SDS011;69425;55.040;82.918;2023-05-10T03:02:50;5.13;;;1.23;;
80119;SDS011;69425;55.040;82.918;2023-05-10T03:07:53;3.42;;;1.35;;
80119;SDS011;69425;55.040;82.918;2023-05-10T03:12:57;2.30;;;1.35;;
80119;SDS011;69425;55.040;82.918;2023-05-10T03:18:07;1.55;;;1.20;;
80119;SDS011;69425;55.040;82.918;2023-05-10T03:23:13;5.60;;;1.52;;
80119;SDS011;69425;55.040;82.918;2023-05-10T03:28:22;4.07;;;1.38;;
80119;SDS011;69425;55.040;82.918;2023-05-10T03:33:25;2.58;;;1.02;;
80119;SDS011;69425;55.040;82.918;2023-05-10T03:38:28;3.78;;;1.10;;
80119;SDS011;69425;55.040;82.918;2023-05-10T03:43:29;2.65;;;0.98;;
80119;SDS011;69425;55.040;82.918;2023-05-10T03:48:31;3.50;;;1.90;;
80119;SDS011;69425;55.040;82.918;2023-05-10T03:53:34;3.33;;;1.23;;
80119;SDS011;69425;55.040;82.918;2023-05-10T03:58:35;3.92;;;1.58;;
80119;SDS011;69425;55.040;82.918;2023-05-10T04:03:36;5.63;;;1.42;;
80119;SDS011;69425;55.040;82.918;2023-05-10T04:08:39;3.08;;;1.50;;
80119;SDS011;69425;55.040;82.918;2023-05-10T04:13:40;3.33;;;1.48;;
80119;SDS011;69425;55.040;82.918;2023-05-10T04:18:41;2.28;;;1.02;;
80119;SDS011;69425;55.040;82.918;2023-05-10T04:23:45;2.10;;;0.93;;
80119;SDS011;69425;55.040;82.918;2023-05-10T04:28:46;4.85;;;1.42;;
80119;SDS011;69425;55.040;82.918;2023-05-10T04:33:47;3.15;;;1.13;;
80119;SDS011;69425;55.040;82.918;2023-05-10T04:38:50;2.70;;;1.15;;
80119;SDS011;69425;55.040;82.918;2023-05-10T04:43:51;4.15;;;1.10;;
80119;SDS011;69425;55.040;82.918;2023-05-10T04:48:52;2.10;;;1.33;;
80119;SDS011;69425;55.040;82.918;2023-05-10T04:53:55;1.85;;;1.20;;
80119;SDS011;69425;55.040;82.918;2023-05-10T04:58:56;2.75;;;1.00;;
80119;SDS011;69425;55.040;82.918;2023-05-10T05:03:57;2.30;;;1.02;;
80119;SDS011;69425;55.040;82.918;2023-05-10T05:09:00;3.67;;;1.20;;
80119;SDS011;69425;55.040;82.918;2023-05-10T05:14:01;1.17;;;0.90;;
80119;SDS011;69425;55.040;82.918;2023-05-10T05:19:02;1.77;;;1.15;;
80119;SDS011;69425;55.040;82.918;2023-05-10T05:24:05;1.90;;;1.17;;
80119;SDS011;69425;55.040;82.918;2023-05-10T05:29:07;4.40;;;1.20;;
80119;SDS011;69425;55.040;82.918;2023-05-10T05:34:08;4.22;;;1.20;;
80119;SDS011;69425;55.040;82.918;2023-05-10T05:39:10;1.65;;;1.20;;
80119;SDS011;69425;55.040;82.918;2023-05-10T05:44:12;2.10;;;1.73;;
80119;SDS011;69425;55.040;82.918;2023-05-10T05:49:13;3.95;;;1.73;;
80119;SDS011;69425;55.040;82.918;2023-05-10T05:54:16;3.33;;;2.15;;
80119;SDS011;69425;55.040;82.918;2023-05-10T05:59:17;2.70;;;1.65;;
80119;SDS011;69425;55.040;82.918;2023-05-10T06:04:18;3.70;;;2.60;;
80119;SDS011;69425;55.040;82.918;2023-05-10T06:09:21;3.72;;;2.78;;
80119;SDS011;69425;55.040;82.918;2023-05-10T06:14:22;3.95;;;2.75;;
80119;SDS011;69425;55.040;82.918;2023-05-10T06:19:23;3.78;;;2.25;;
80119;SDS011;69425;55.040;82.918;2023-05-10T06:24:26;3.00;;;1.95;;
80119;SDS011;69425;55.040;82.918;2023-05-10T06:29:27;5.65;;;2.03;;
80119;SDS011;69425;55.040;82.918;2023-05-10T06:34:28;3.95;;;2.50;;
80119;SDS011;69425;55.040;82.918;2023-05-10T06:39:31;3.53;;;2.38;;
80119;SDS011;69425;55.040;82.918;2023-05-10T06:44:32;3.78;;;1.88;;
80119;SDS011;69425;55.040;82.918;2023-05-10T06:49:33;2.83;;;2.42;;
80119;SDS011;69425;55.040;82.918;2023-05-10T06:54:36;3.88;;;1.90;;
80119;SDS011;69425;55.040;82.918;2023-05-10T06:59:37;3.55;;;1.73;;
80119;SDS011;69425;55.040;82.918;2023-05-10T07:04:38;4.63;;;2.50;;
80119;SDS011;69425;55.040;82.918;2023-05-10T07:09:41;8.25;;;2.78;;
80119;SDS011;69425;55.040;82.918;2023-05-10T07:14:42;4.15;;;1.55;;
80119;SDS011;69425;55.040;82.918;2023-05-10T07:19:43;4.78;;;2.65;;
80119;SDS011;69425;55.040;82.918;2023-05-10T07:24:46;4.82;;;1.73;;
80119;SDS011;69425;55.040;82.918;2023-05-10T07:29:47;2.67;;;1.95;;
80119;SDS011;69425;55.040;82.918;2023-05-10T07:34:48;3.72;;;1.95;;
80119;SDS011;69425;55.040;82.918;2023-05-10T07:39:51;4.45;;;1.95;;
80119;SDS011;69425;55.040;82.918;2023-05-10T07:44:52;3.38;;;2.03;;
80119;SDS011;69425;55.040;82.918;2023-05-10T07:49:53;3.22;;;2.10;;
80119;SDS011;69425;55.040;82.918;2023-05-10T07:54:56;6.07;;;2.50;;
80119;SDS011;69425;55.040;82.918;2023-05-10T07:59:57;5.18;;;2.05;;
80119;SDS011;69425;55.040;82.918;2023-05-10T08:04:58;3.78;;;2.30;;
80119;SDS011;69425;55.040;82.918;2023-05-10T08:10:01;3.42;;;1.90;;
80119;SDS011;69425;55.040;82.918;2023-05-10T08:15:04;4.57;;;1.92;;
80119;SDS011;69425;55.040;82.918;2023-05-10T08:20:07;5.13;;;1.88;;
80119;SDS011;69425;55.040;82.918;2023-05-10T08:25:10;4.40;;;2.10;;
80119;SDS011;69425;55.040;82.918;2023-05-10T08:30:11;2.90;;;1.70;;
80119;SDS011;69425;55.040;82.918;2023-05-10T08:35:13;4.43;;;2.40;;
80119;SDS011;69425;55.040;82.918;2023-05-10T08:40:15;2.75;;;1.98;;
80119;SDS011;69425;55.040;82.918;2023-05-10T08:45:16;3.58;;;1.95;;
80119;SDS011;69425;55.040;82.918;2023-05-10T08:50:19;3.88;;;2.10;;
80119;SDS011;69425;55.040;82.918;2023-05-10T08:55:22;3.10;;;1.90;;
80119;SDS011;69425;55.040;82.918;2023-05-10T09:00:24;4.45;;;1.80;;
80119;SDS011;69425;55.040;82.918;2023-05-10T09:10:27;2.78;;;1.77;;
80119;SDS011;69425;55.040;82.918;2023-05-10T09:15:30;6.20;;;2.17;;
80119;SDS011;69425;55.040;82.918;2023-05-10T09:20:31;5.97;;;1.85;;
80119;SDS011;69425;55.040;82.918;2023-05-10T09:30:35;3.60;;;1.98;;
80119;SDS011;69425;55.040;82.918;2023-05-10T09:35:36;3.42;;;2.20;;
80119;SDS011;69425;55.040;82.918;2023-05-10T09:45:40;2.72;;;1.90;;
80119;SDS011;69425;55.040;82.918;2023-05-10T09:50:42;3.97;;;1.95;;
80119;SDS011;69425;55.040;82.918;2023-05-10T10:00:46;4.70;;;2.60;;
80119;SDS011;69425;55.040;82.918;2023-05-10T10:05:48;5.35;;;2.30;;
80119;SDS011;69425;55.040;82.918;2023-05-10T10:10:50;2.60;;;2.05;;
80119;SDS011;69425;55.040;82.918;2023-05-10T10:15:52;3.65;;;2.25;;
80119;SDS011;69425;55.040;82.918;2023-05-10T10:20:53;5.05;;;2.22;;
80119;SDS011;69425;55.040;82.918;2023-05-10T10:25:56;7.20;;;2.20;;
80119;SDS011;69425;55.040;82.918;2023-05-10T10:30:59;6.05;;;2.95;;
80119;SDS011;69425;55.040;82.918;2023-05-10T10:36:11;4.18;;;2.42;;
80119;SDS011;69425;55.040;82.918;2023-05-10T10:41:26;3.08;;;1.77;;
80119;SDS011;69425;55.040;82.918;2023-05-10T10:46:28;2.83;;;1.73;;
80119;SDS011;69425;55.040;82.918;2023-05-10T10:56:32;3.97;;;2.13;;
80119;SDS011;69425;55.040;82.918;2023-05-10T11:01:33;2.25;;;1.98;;
80119;SDS011;69425;55.040;82.918;2023-05-10T11:06:35;4.35;;;2.10;;
80119;SDS011;69425;55.040;82.918;2023-05-10T11:11:37;3.92;;;2.00;;
80119;SDS011;69425;55.040;82.918;2023-05-10T11:16:51;3.22;;;2.00;;
80119;SDS011;69425;55.040;82.918;2023-05-10T11:27:14;3.95;;;2.10;;
80119;SDS011;69425;55.040;82.918;2023-05-10T11:32:15;3.42;;;2.05;;
80119;SDS011;69425;55.040;82.918;2023-05-10T11:37:17;4.05;;;2.10;;
80119;SDS011;69425;55.040;82.918;2023-05-10T11:42:20;2.60;;;1.80;;
80119;SDS011;69425;55.040;82.918;2023-05-10T11:47:21;6.50;;;2.20;;
80119;SDS011;69425;55.040;82.918;2023-05-10T11:52:23;4.25;;;2.30;;
80119;SDS011;69425;55.040;82.918;2023-05-10T11:57:27;5.65;;;1.88;;
80119;SDS011;69425;55.040;82.918;2023-05-10T12:02:28;3.83;;;2.08;;
80119;SDS011;69425;55.040;82.918;2023-05-10T12:07:29;4.97;;;1.90;;
80119;SDS011;69425;55.040;82.918;2023-05-10T12:17:37;2.05;;;1.25;;
80119;SDS011;69425;55.040;82.918;2023-05-10T12:22:38;3.45;;;1.58;;
80119;SDS011;69425;55.040;82.918;2023-05-10T12:32:43;3.15;;;1.60;;
80119;SDS011;69425;55.040;82.918;2023-05-10T12:37:44;4.65;;;1.70;;
80119;SDS011;69425;55.040;82.918;2023-05-10T12:47:48;2.85;;;1.50;;
80119;SDS011;69425;55.040;82.918;2023-05-10T12:57:51;3.63;;;1.35;;
80119;SDS011;69425;55.040;82.918;2023-05-10T13:02:52;1.48;;;1.20;;
80119;SDS011;69425;55.040;82.918;2023-05-10T13:07:53;2.88;;;1.40;;
80119;SDS011;69425;55.040;82.918;2023-05-10T13:12:56;3.63;;;1.70;;
80119;SDS011;69425;55.040;82.918;2023-05-10T13:17:57;7.75;;;1.80;;
80119;SDS011;69425;55.040;82.918;2023-05-10T13:22:58;4.72;;;1.83;;
80119;SDS011;69425;55.040;82.918;2023-05-10T13:28:01;4.07;;;1.67;;
80119;SDS011;69425;55.040;82.918;2023-05-10T13:33:02;2.88;;;1.98;;
80119;SDS011;69425;55.040;82.918;2023-05-10T13:43:06;2.97;;;1.85;;
80119;SDS011;69425;55.040;82.918;2023-05-10T13:48:07;3.17;;;1.65;;
80119;SDS011;69425;55.040;82.918;2023-05-10T13:53:08;3.42;;;1.65;;
80119;SDS011;69425;55.040;82.918;2023-05-10T13:58:14;3.22;;;1.70;;
80119;SDS011;69425;55.040;82.918;2023-05-10T14:03:15;3.95;;;1.90;;
80119;SDS011;69425;55.040;82.918;2023-05-10T14:08:16;3.85;;;1.90;;
80119;SDS011;69425;55.040;82.918;2023-05-10T14:18:20;3.63;;;1.77;;
80119;SDS011;69425;55.040;82.918;2023-05-10T14:28:23;5.05;;;1.90;;
80119;SDS011;69425;55.040;82.918;2023-05-10T14:33:25;4.30;;;2.63;;
80119;SDS011;69425;55.040;82.918;2023-05-10T14:38:26;5.88;;;2.40;;
80119;SDS011;69425;55.040;82.918;2023-05-10T14:43:28;3.92;;;2.55;;
80119;SDS011;69425;55.040;82.918;2023-05-10T14:48:30;4.93;;;2.70;;
80119;SDS011;69425;55.040;82.918;2023-05-10T14:53:34;6.18;;;2.95;;
80119;SDS011;69425;55.040;82.918;2023-05-10T14:58:37;10.55;;;3.33;;
80119;SDS011;69425;55.040;82.918;2023-05-10T15:03:38;7.55;;;2.78;;
80119;SDS011;69425;55.040;82.918;2023-05-10T15:08:39;7.40;;;2.60;;
80119;SDS011;69425;55.040;82.918;2023-05-10T15:18:43;5.18;;;2.60;;
80119;SDS011;69425;55.040;82.918;2023-05-10T15:23:44;7.50;;;2.47;;
80119;SDS011;69425;55.040;82.918;2023-05-10T15:28:47;10.07;;;4.05;;
80119;SDS011;69425;55.040;82.918;2023-05-10T15:33:48;10.73;;;4.40;;
80119;SDS011;69425;55.040;82.918;2023-05-10T15:38:49;9.32;;;3.47;;
80119;SDS011;69425;55.040;82.918;2023-05-10T15:43:51;9.88;;;3.15;;
80119;SDS011;69425;55.040;82.918;2023-05-10T15:48:53;7.57;;;3.25;;
80119;SDS011;69425;55.040;82.918;2023-05-10T15:53:54;4.68;;;2.92;;
80119;SDS011;69425;55.040;82.918;2023-05-10T15:58:57;6.50;;;2.95;;
80119;SDS011;69425;55.040;82.918;2023-05-10T16:03:58;8.77;;;3.03;;
80119;SDS011;69425;55.040;82.918;2023-05-10T16:14:02;4.38;;;2.40;;
80119;SDS011;69425;55.040;82.918;2023-05-10T16:19:03;6.45;;;3.40;;
80119;SDS011;69425;55.040;82.918;2023-05-10T16:24:04;10.00;;;3.75;;
80119;SDS011;69425;55.040;82.918;2023-05-10T16:29:07;7.20;;;3.45;;
80119;SDS011;69425;55.040;82.918;2023-05-10T16:34:08;9.27;;;4.30;;
80119;SDS011;69425;55.040;82.918;2023-05-10T16:39:09;9.98;;;4.32;;
80119;SDS011;69425;55.040;82.918;2023-05-10T16:44:12;12.82;;;4.72;;
80119;SDS011;69425;55.040;82.918;2023-05-10T16:49:13;11.23;;;5.07;;
80119;SDS011;69425;55.040;82.918;2023-05-10T16:54:14;11.05;;;4.90;;
80119;SDS011;69425;55.040;82.918;2023-05-10T16:59:17;10.98;;;4.80;;
80119;SDS011;69425;55.040;82.918;2023-05-10T17:04:19;14.90;;;5.72;;
80119;SDS011;69425;55.040;82.918;2023-05-10T17:09:38;8.90;;;4.93;;
80119;SDS011;69425;55.040;82.918;2023-05-10T17:14:41;11.43;;;5.15;;
80119;SDS011;69425;55.040;82.918;2023-05-10T17:19:43;11.93;;;5.03;;
80119;SDS011;69425;55.040;82.918;2023-05-10T17:24:44;10.77;;;4.50;;
80119;SDS011;69425;55.040;82.918;2023-05-10T17:29:47;6.63;;;3.53;;
80119;SDS011;69425;55.040;82.918;2023-05-10T17:34:48;6.80;;;3.72;;
80119;SDS011;69425;55.040;82.918;2023-05-10T17:39:49;9.02;;;4.15;;
80119;SDS011;69425;55.040;82.918;2023-05-10T17:44:52;6.22;;;3.55;;
80119;SDS011;69425;55.040;82.918;2023-05-10T17:49:53;8.82;;;3.47;;
80119;SDS011;69425;55.040;82.918;2023-05-10T17:54:54;5.30;;;3.20;;
80119;SDS011;69425;55.040;82.918;2023-05-10T17:59:57;9.35;;;3.30;;
80119;SDS011;69425;55.040;82.918;2023-05-10T18:04:58;6.95;;;3.83;;
80119;SDS011;69425;55.040;82.918;2023-05-10T18:09:59;5.88;;;3.22;;
80119;SDS011;69425;55.040;82.918;2023-05-10T18:15:02;6.55;;;3.20;;
80119;SDS011;69425;55.040;82.918;2023-05-10T18:20:05;7.32;;;3.13;;
80119;SDS011;69425;55.040;82.918;2023-05-10T18:25:07;7.10;;;3.08;;
80119;SDS011;69425;55.040;82.918;2023-05-10T18:30:11;4.10;;;2.50;;
80119;SDS011;69425;55.040;82.918;2023-05-10T18:35:13;6.53;;;2.45;;
80119;SDS011;69425;55.040;82.918;2023-05-10T18:40:15;3.55;;;1.98;;
80119;SDS011;69425;55.040;82.918;2023-05-10T18:45:18;5.30;;;2.40;;
80119;SDS011;69425;55.040;82.918;2023-05-10T18:50:19;4.60;;;2.35;;
80119;SDS011;69425;55.040;82.918;2023-05-10T18:55:20;2.45;;;1.42;;
80119;SDS011;69425;55.040;82.918;2023-05-10T19:00:24;4.57;;;1.45;;
80119;SDS011;69425;55.040;82.918;2023-05-10T19:05:26;5.28;;;1.63;;
80119;SDS011;69425;55.040;82.918;2023-05-10T19:10:27;3.30;;;1.48;;
80119;SDS011;69425;55.040;82.918;2023-05-10T19:15:29;4.68;;;1.92;;
80119;SDS011;69425;55.040;82.918;2023-05-10T19:31:11;5.68;;;2.38;;
80119;SDS011;69425;55.040;82.918;2023-05-10T19:36:12;4.38;;;1.65;;
80119;SDS011;69425;55.040;82.918;2023-05-10T19:41:13;4.07;;;2.17;;
80119;SDS011;69425;55.040;82.918;2023-05-10T19:46:16;2.80;;;1.83;;
80119;SDS011;69425;55.040;82.918;2023-05-10T19:51:17;3.83;;;1.67;;
80119;SDS011;69425;55.040;82.918;2023-05-10T19:56:18;3.67;;;1.55;;
80119;SDS011;69425;55.040;82.918;2023-05-10T20:01:21;2.08;;;1.13;;
80119;SDS011;69425;55.040;82.918;2023-05-10T20:06:22;3.30;;;1.50;;
80119;SDS011;69425;55.040;82.918;2023-05-10T20:11:23;2.33;;;1.55;;
80119;SDS011;69425;55.040;82.918;2023-05-10T20:16:25;2.95;;;1.50;;
80119;SDS011;69425;55.040;82.918;2023-05-10T20:21:27;1.13;;;0.90;;
80119;SDS011;69425;55.040;82.918;2023-05-10T20:26:28;2.38;;;1.20;;
80119;SDS011;69425;55.040;82.918;2023-05-10T20:31:30;1.70;;;1.20;;
80119;SDS011;69425;55.040;82.918;2023-05-10T20:36:31;2.90;;;1.40;;
80119;SDS011;69425;55.040;82.918;2023-05-10T20:41:33;2.28;;;1.23;;
80119;SDS011;69425;55.040;82.918;2023-05-10T20:46:35;1.70;;;1.00;;
80119;SDS011;69425;55.040;82.918;2023-05-10T20:51:38;1.30;;;0.80;;
80119;SDS011;69425;55.040;82.918;2023-05-10T20:56:39;2.53;;;1.30;;
80119;SDS011;69425;55.040;82.918;2023-05-10T21:01:42;3.08;;;1.20;;
80119;SDS011;69425;55.040;82.918;2023-05-10T21:06:44;1.70;;;1.17;;
80119;SDS011;69425;55.040;82.918;2023-05-10T21:11:45;1.67;;;1.00;;
80119;SDS011;69425;55.040;82.918;2023-05-10T21:16:47;2.30;;;1.20;;
80119;SDS011;69425;55.040;82.918;2023-05-10T21:21:49;2.45;;;1.38;;
80119;SDS011;69425;55.040;82.918;2023-05-10T21:26:50;1.98;;;1.10;;
80119;SDS011;69425;55.040;82.918;2023-05-10T21:31:52;1.52;;;0.82;;
80119;SDS011;69425;55.040;82.918;2023-05-10T21:36:53;5.78;;;1.20;;
80119;SDS011;69425;55.040;82.918;2023-05-10T21:41:55;6.78;;;1.50;;
80119;SDS011;69425;55.040;82.918;2023-05-10T21:46:57;2.15;;;1.35;;
80119;SDS011;69425;55.040;82.918;2023-05-10T21:51:58;4.50;;;1.55;;
80119;SDS011;69425;55.040;82.918;2023-05-10T21:56:59;3.15;;;1.50;;
80119;SDS011;69425;55.040;82.918;2023-05-10T22:02:02;1.88;;;1.33;;
80119;SDS011;69425;55.040;82.918;2023-05-10T22:07:03;2.40;;;1.75;;
80119;SDS011;69425;55.040;82.918;2023-05-10T22:12:05;2.35;;;1.30;;
80119;SDS011;69425;55.040;82.918;2023-05-10T22:22:08;1.83;;;1.10;;
80119;SDS011;69425;55.040;82.918;2023-05-10T22:27:09;2.65;;;1.10;;
80119;SDS011;69425;55.040;82.918;2023-05-10T22:32:12;2.50;;;1.42;;
80119;SDS011;69425;55.040;82.918;2023-05-10T22:37:13;2.45;;;1.30;;
80119;SDS011;69425;55.040;82.918;2023-05-10T22:42:25;2.90;;;1.55;;
80119;SDS011;69425;55.040;82.918;2023-05-10T22:47:27;1.75;;;1.33;;
80119;SDS011;69425;55.040;82.918;2023-05-10T22:52:28;4.00;;;1.33;;
80119;SDS011;69425;55.040;82.918;2023-05-10T22:57:30;1.67;;;1.25;;
80119;SDS011;69425;55.040;82.918;2023-05-10T23:02:32;3.85;;;1.23;;
80119;SDS011;69425;55.040;82.918;2023-05-10T23:07:34;4.28;;;2.05;;
80119;SDS011;69425;55.040;82.918;2023-05-10T23:12:35;3.17;;;1.15;;
80119;SDS011;69425;55.040;82.918;2023-05-10T23:17:38;4.00;;;1.48;;
80119;SDS011;69425;55.040;82.918;2023-05-10T23:22:39;2.92;;;1.40;;
80119;SDS011;69425;55.040;82.918;2023-05-10T23:27:40;3.28;;;1.40;;
80119;SDS011;69425;55.040;82.918;2023-05-10T23:32:42;3.88;;;1.65;;
80119;SDS011;69425;55.040;82.918;2023-05-10T23:37:44;4.00;;;1.90;;
80119;SDS011;69425;55.040;82.918;2023-05-10T23:42:45;5.78;;;1.67;;
80119;SDS011;69425;55.040;82.918;2023-05-10T23:47:47;2.53;;;1.77;;
80119;SDS011;69425;55.040;82.918;2023-05-10T23:52:49;2.78;;;1.73;;
80119;SDS011;69425;55.040;82.918;2023-05-10T23:57:50;4.13;;;2.10;;
